createdAt,value
2023-05-15T00:00:07.044Z,10.18
2023-05-15T00:02:35.393Z,9.90
2023-05-15T00:05:02.204Z,10.65
2023-05-15T00:07:29.085Z,11.75
2023-05-15T00:09:55.861Z,11.82
2023-05-15T00:12:22.630Z,11.93
2023-05-15T00:14:49.332Z,12.88
2023-05-15T00:17:16.525Z,12.02
2023-05-15T00:19:43.236Z,12.48
2023-05-15T00:22:09.994Z,13.32
2023-05-15T00:24:36.704Z,13.57
2023-05-15T00:27:06.491Z,15.20
2023-05-15T00:29:33.313Z,14.68
2023-05-15T00:32:00.097Z,13.48
2023-05-15T00:34:27.022Z,15.02
2023-05-15T00:36:53.810Z,15.55
2023-05-15T00:39:20.936Z,15.85
2023-05-15T00:41:49.765Z,14.55
2023-05-15T00:44:20.039Z,16.77
2023-05-15T00:46:50.138Z,17.58
2023-05-15T00:49:24.165Z,15.95
2023-05-15T00:51:51.295Z,17.30
2023-05-15T00:54:19.258Z,17.27
2023-05-15T00:56:47.663Z,16.80
2023-05-15T01:01:43.546Z,16.17
2023-05-15T01:04:10.290Z,17.13
2023-05-15T01:06:37.687Z,17.75
2023-05-15T01:09:06.609Z,18.77
2023-05-15T01:11:36.411Z,18.20
2023-05-15T01:14:07.726Z,18.38
2023-05-15T01:16:36.331Z,18.63
2023-05-15T01:19:04.148Z,18.27
2023-05-15T01:21:56.785Z,18.83
2023-05-15T01:25:00.510Z,17.92
2023-05-15T01:27:41.778Z,17.83
2023-05-15T01:30:18.776Z,17.75
2023-05-15T01:32:55.722Z,17.02
2023-05-15T01:35:33.464Z,17.25
2023-05-15T01:38:19.544Z,18.95
2023-05-15T01:40:49.701Z,18.10
2023-05-15T01:43:21.580Z,18.77
2023-05-15T01:45:48.256Z,19.30
2023-05-15T01:48:17.167Z,21.02
2023-05-15T01:50:45.893Z,21.02
2023-05-15T01:53:16.291Z,20.98
2023-05-15T01:55:43.642Z,19.40
2023-05-15T01:58:10.612Z,22.25
2023-05-15T02:00:39.092Z,22.98
2023-05-15T02:05:34.273Z,25.67
2023-05-15T02:08:05.564Z,25.00
2023-05-15T02:10:34.429Z,25.38
2023-05-15T02:13:01.830Z,28.67
2023-05-15T02:15:30.122Z,27.33
2023-05-15T02:17:56.897Z,27.55
2023-05-15T02:20:23.638Z,27.63
2023-05-15T02:22:50.315Z,28.17
2023-05-15T02:25:17.339Z,29.00
2023-05-15T02:28:00.642Z,31.20
2023-05-15T02:30:49.620Z,29.85
2023-05-15T02:33:42.383Z,31.13
2023-05-15T02:36:11.305Z,29.25
2023-05-15T02:38:51.958Z,31.08
2023-05-15T02:41:19.579Z,33.00
2023-05-15T02:43:49.121Z,32.53
2023-05-15T02:46:20.327Z,31.45
2023-05-15T02:48:47.826Z,32.80
2023-05-15T02:51:14.828Z,31.35
2023-05-15T02:53:42.420Z,33.20
2023-05-15T02:56:09.438Z,32.37
2023-05-15T02:58:36.835Z,33.03
2023-05-15T03:01:04.510Z,33.50
2023-05-15T03:03:32.580Z,34.08
2023-05-15T03:06:00.992Z,33.55
2023-05-15T03:10:54.971Z,34.70
2023-05-15T03:13:21.948Z,34.83
2023-05-15T03:15:50.095Z,37.00
2023-05-15T03:18:18.942Z,35.97
2023-05-15T03:20:48.473Z,37.30
2023-05-15T03:23:15.796Z,37.80
2023-05-15T03:25:42.484Z,36.65
2023-05-15T03:28:09.156Z,37.97
2023-05-15T03:30:35.944Z,36.28
2023-05-15T03:33:04.091Z,37.20
2023-05-15T03:35:32.434Z,36.10
2023-05-15T03:40:25.856Z,35.38
2023-05-15T03:42:53.512Z,34.13
2023-05-15T03:45:21.036Z,32.03
2023-05-15T03:47:48.447Z,30.53
2023-05-15T03:50:15.706Z,32.67
2023-05-15T03:52:42.554Z,34.25
2023-05-15T03:55:09.737Z,34.60
2023-05-15T03:57:36.936Z,32.65
2023-05-15T04:00:09.854Z,34.85
2023-05-15T04:02:37.541Z,33.35
2023-05-15T04:05:05.390Z,33.40
2023-05-15T04:07:33.304Z,36.08
2023-05-15T04:10:03.911Z,35.33
2023-05-15T04:12:33.714Z,35.60
2023-05-15T04:15:14.557Z,34.83
2023-05-15T04:17:41.734Z,36.30
2023-05-15T04:20:09.812Z,34.67
2023-05-15T04:22:37.683Z,33.63
2023-05-15T04:25:04.845Z,32.60
2023-05-15T04:27:33.004Z,31.85
2023-05-15T04:30:01.098Z,32.35
2023-05-15T04:32:31.170Z,34.13
2023-05-15T04:34:57.862Z,35.70
2023-05-15T04:37:24.673Z,37.75
2023-05-15T04:39:52.952Z,34.03
2023-05-15T04:42:22.498Z,32.70
2023-05-15T04:44:49.640Z,29.88
2023-05-15T04:47:16.781Z,30.83
2023-05-15T04:49:43.590Z,32.28
2023-05-15T04:52:10.543Z,31.30
2023-05-15T04:54:37.310Z,30.02
2023-05-15T04:57:04.241Z,33.38
2023-05-15T04:59:30.979Z,31.98
2023-05-15T05:01:57.847Z,30.67
2023-05-15T05:04:24.706Z,32.83
2023-05-15T05:06:51.668Z,29.77
2023-05-15T05:09:21.925Z,25.10
2023-05-15T05:11:49.083Z,23.85
2023-05-15T05:14:17.044Z,22.33
2023-05-15T05:16:46.966Z,21.67
2023-05-15T05:19:14.443Z,21.85
2023-05-15T05:21:41.669Z,21.77
2023-05-15T05:24:08.843Z,21.38
2023-05-15T05:26:36.069Z,21.77
2023-05-15T05:29:03.170Z,21.08
2023-05-15T05:31:30.364Z,21.00
2023-05-15T05:33:57.666Z,20.77
2023-05-15T05:36:24.825Z,20.90
2023-05-15T05:38:51.901Z,19.80
2023-05-15T05:41:19.160Z,20.00
2023-05-15T05:43:46.309Z,19.60
2023-05-15T05:46:13.522Z,20.10
2023-05-15T05:48:40.722Z,21.60
2023-05-15T05:51:07.884Z,21.65
2023-05-15T05:53:35.316Z,19.98
2023-05-15T05:56:03.176Z,18.85
2023-05-15T05:58:30.997Z,20.00
2023-05-15T06:00:58.255Z,19.67
2023-05-15T06:03:25.910Z,19.58
2023-05-15T06:05:53.746Z,18.70
2023-05-15T06:08:21.094Z,17.92
2023-05-15T06:10:48.287Z,18.70
2023-05-15T06:13:15.560Z,18.95
2023-05-15T06:15:42.860Z,17.15
2023-05-15T06:18:10.022Z,17.92
2023-05-15T06:20:37.261Z,16.92
2023-05-15T06:23:04.480Z,16.52
2023-05-15T06:25:32.839Z,16.13
2023-05-15T06:28:00.063Z,18.92
2023-05-15T06:30:27.488Z,18.63
2023-05-15T06:32:54.769Z,20.02
2023-05-15T06:35:24.131Z,20.05
2023-05-15T06:37:52.309Z,21.92
2023-05-15T06:40:21.227Z,21.60
2023-05-15T06:42:48.378Z,21.27
2023-05-15T06:45:16.582Z,21.30
2023-05-15T06:47:44.122Z,19.83
2023-05-15T06:50:11.433Z,17.35
2023-05-15T06:52:38.498Z,18.60
2023-05-15T06:55:05.933Z,19.10
2023-05-15T06:57:34.547Z,19.13
2023-05-15T07:00:01.724Z,18.85
2023-05-15T07:02:28.851Z,20.67
2023-05-15T07:04:56.223Z,20.33
2023-05-15T07:07:23.428Z,20.23
2023-05-15T07:09:50.907Z,20.60
2023-05-15T07:12:18.067Z,18.15
2023-05-15T07:14:45.200Z,20.38
2023-05-15T07:17:12.485Z,19.27
2023-05-15T07:19:39.672Z,21.25
2023-05-15T07:22:07.704Z,21.23
2023-05-15T07:24:34.855Z,21.83
2023-05-15T07:27:02.061Z,21.25
2023-05-15T07:29:28.828Z,22.27
2023-05-15T07:31:55.740Z,21.88
2023-05-15T07:34:23.472Z,20.35
2023-05-15T07:36:50.246Z,21.40
2023-05-15T07:39:17.376Z,21.60
2023-05-15T07:41:46.913Z,19.38
2023-05-15T07:44:14.132Z,17.33
2023-05-15T07:46:41.448Z,17.98
2023-05-15T07:49:08.608Z,18.92
2023-05-15T07:51:37.864Z,17.75
2023-05-15T07:54:05.153Z,18.73
2023-05-15T07:56:33.201Z,20.63
2023-05-15T07:59:00.382Z,21.48
2023-05-15T08:01:27.799Z,18.30
2023-05-15T08:03:56.008Z,18.98
2023-05-15T08:06:23.262Z,21.42
2023-05-15T08:08:50.431Z,19.45
2023-05-15T08:11:17.605Z,20.25
2023-05-15T08:13:46.246Z,19.20
2023-05-15T08:16:13.512Z,20.27
2023-05-15T08:18:40.711Z,22.15
2023-05-15T08:21:08.194Z,22.17
2023-05-15T08:23:35.327Z,19.80
2023-05-15T08:26:02.446Z,20.88
2023-05-15T08:28:29.606Z,21.65
2023-05-15T08:30:57.545Z,20.38
2023-05-15T08:33:24.787Z,21.65
2023-05-15T08:35:52.579Z,19.88
2023-05-15T08:38:20.789Z,19.65
2023-05-15T08:40:51.128Z,16.65
2023-05-15T08:43:18.776Z,16.30
2023-05-15T08:45:46.084Z,15.53
2023-05-15T08:48:15.173Z,15.95
2023-05-15T08:50:44.071Z,16.13
2023-05-15T08:53:12.290Z,15.10
2023-05-15T08:55:39.508Z,16.20
2023-05-15T08:58:07.323Z,17.38
2023-05-15T09:00:35.080Z,22.08
2023-05-15T09:03:02.550Z,25.48
2023-05-15T09:05:30.339Z,24.13
2023-05-15T09:07:58.008Z,22.92
2023-05-15T09:10:25.542Z,25.15
2023-05-15T09:12:53.031Z,22.75
2023-05-15T09:15:28.920Z,25.48
2023-05-15T09:17:56.891Z,25.30
2023-05-15T09:20:28.098Z,25.55
2023-05-15T09:22:55.972Z,24.95
2023-05-15T09:25:56.981Z,26.67
2023-05-15T09:28:28.120Z,27.73
2023-05-15T09:31:00.004Z,23.50
2023-05-15T09:33:34.344Z,27.67
2023-05-15T09:36:06.226Z,28.65
2023-05-15T09:38:34.138Z,28.73
2023-05-15T09:41:02.640Z,29.65
2023-05-15T09:43:30.857Z,30.38
2023-05-15T09:45:58.021Z,30.85
2023-05-15T09:48:25.381Z,31.83
2023-05-15T09:50:53.588Z,31.60
2023-05-15T09:53:22.222Z,34.33
2023-05-15T09:55:49.792Z,34.45
2023-05-15T09:58:18.130Z,32.83
2023-05-15T10:00:47.632Z,37.67
2023-05-15T10:03:22.494Z,35.33
2023-05-15T10:05:49.812Z,36.70
2023-05-15T10:08:17.332Z,35.75
2023-05-15T10:10:45.162Z,37.63
2023-05-15T10:13:12.442Z,37.63
2023-05-15T10:15:40.499Z,37.20
2023-05-15T10:18:08.734Z,36.88
2023-05-15T10:20:36.388Z,39.22
2023-05-15T10:23:05.066Z,42.37
2023-05-15T10:25:33.319Z,39.80
2023-05-15T10:28:01.221Z,38.55
2023-05-15T10:30:29.212Z,37.75
2023-05-15T10:32:57.549Z,36.00
2023-05-15T10:35:25.577Z,35.67
2023-05-15T10:37:52.814Z,31.38
2023-05-15T10:40:20.072Z,30.20
2023-05-15T10:42:47.790Z,29.92
2023-05-15T10:45:15.160Z,28.67
2023-05-15T10:47:43.236Z,27.48
2023-05-15T10:50:11.401Z,26.02
2023-05-15T10:52:39.130Z,25.33
2023-05-15T10:55:10.120Z,26.27
2023-05-15T10:57:38.854Z,24.52
2023-05-15T11:00:25.383Z,23.88
2023-05-15T11:02:54.038Z,24.60
2023-05-15T11:05:21.313Z,23.90
2023-05-15T11:08:06.974Z,24.70
2023-05-15T11:10:34.088Z,24.42
2023-05-15T11:13:02.549Z,24.08
2023-05-15T11:18:04.426Z,23.85
2023-05-15T11:20:37.099Z,22.77
2023-05-15T11:23:04.495Z,23.83
2023-05-15T11:25:32.745Z,23.35
2023-05-15T11:27:59.972Z,23.75
2023-05-15T11:30:44.139Z,21.33
2023-05-15T11:33:11.919Z,20.63
2023-05-15T11:35:42.121Z,20.92
2023-05-15T11:38:12.389Z,20.92
2023-05-15T11:40:49.793Z,21.40
2023-05-15T11:43:27.002Z,23.40
2023-05-15T11:45:58.360Z,21.05
2023-05-15T11:48:31.489Z,22.85
2023-05-15T11:50:58.773Z,21.60
2023-05-15T11:53:26.675Z,20.95
2023-05-15T11:55:54.554Z,20.90
2023-05-15T11:58:22.734Z,21.70
2023-05-15T12:00:51.457Z,19.02
2023-05-15T12:03:20.415Z,17.45
2023-05-15T12:05:58.185Z,14.80
2023-05-15T12:08:27.399Z,14.45
2023-05-15T12:10:54.595Z,15.63
2023-05-15T12:13:21.781Z,13.88
2023-05-15T12:15:49.026Z,15.05
2023-05-15T12:18:16.074Z,15.90
2023-05-15T12:20:46.729Z,14.90
2023-05-15T12:23:17.716Z,14.45
2023-05-15T12:25:46.998Z,14.48
2023-05-15T12:28:14.663Z,16.38
2023-05-15T12:30:42.651Z,13.93
2023-05-15T12:33:13.492Z,12.00
2023-05-15T12:35:44.854Z,12.23
2023-05-15T12:38:18.106Z,11.68
2023-05-15T12:40:46.600Z,10.40
2023-05-15T12:45:41.179Z,10.43
2023-05-15T12:48:08.403Z,9.87
2023-05-15T12:50:36.986Z,9.88
2023-05-15T12:55:35.106Z,9.55
2023-05-15T12:58:08.679Z,9.75
2023-05-15T13:00:36.942Z,10.02
2023-05-15T13:03:04.586Z,10.82
2023-05-15T13:05:35.430Z,9.73
2023-05-15T13:08:07.500Z,8.80
2023-05-15T13:10:35.598Z,8.93
2023-05-15T13:13:02.924Z,8.05
2023-05-15T13:15:30.140Z,9.77
2023-05-15T13:18:05.397Z,8.48
2023-05-15T13:20:36.775Z,11.43
2023-05-15T13:23:04.069Z,12.02
2023-05-15T13:25:32.114Z,12.57
2023-05-15T13:28:00.646Z,12.65
2023-05-15T13:30:28.970Z,13.73
2023-05-15T13:32:57.328Z,12.52
2023-05-15T13:35:24.765Z,13.15
2023-05-15T13:37:51.925Z,12.68
2023-05-15T13:40:19.116Z,15.07
2023-05-15T13:42:46.264Z,15.90
2023-05-15T13:45:14.274Z,14.57
2023-05-15T13:47:41.638Z,16.95
2023-05-15T13:50:13.235Z,13.23
2023-05-15T13:52:41.328Z,13.25
2023-05-15T13:55:11.981Z,12.27
2023-05-15T13:57:42.630Z,11.82
2023-05-15T14:00:12.661Z,12.20
2023-05-15T14:02:40.472Z,11.25
2023-05-15T14:05:08.228Z,10.45
2023-05-15T14:07:35.052Z,9.68
2023-05-15T14:10:02.010Z,9.65
2023-05-15T14:12:28.735Z,8.63
2023-05-15T14:14:55.636Z,7.90
2023-05-15T14:17:23.294Z,8.45
2023-05-15T14:19:50.219Z,8.53
2023-05-15T14:22:16.880Z,8.77
2023-05-15T14:24:43.543Z,8.52
2023-05-15T14:27:10.276Z,12.23
2023-05-15T14:29:36.955Z,7.75
2023-05-15T14:32:03.673Z,7.18
2023-05-15T14:34:30.838Z,7.10
2023-05-15T14:36:57.594Z,6.30
2023-05-15T14:39:24.253Z,6.85
2023-05-15T14:41:50.933Z,6.53
2023-05-15T14:44:17.746Z,6.45
2023-05-15T14:46:44.688Z,6.55
2023-05-15T14:49:11.664Z,6.95
2023-05-15T14:51:39.876Z,6.53
2023-05-15T14:54:06.747Z,6.78
2023-05-15T14:56:33.695Z,6.82
2023-05-15T14:59:00.516Z,7.18
2023-05-15T15:01:27.234Z,7.25
2023-05-15T15:03:53.972Z,6.97
2023-05-15T15:06:21.762Z,6.78
2023-05-15T15:08:48.635Z,6.10
2023-05-15T15:11:15.532Z,6.43
2023-05-15T15:13:42.191Z,5.93
2023-05-15T15:16:09.594Z,5.75
2023-05-15T15:18:36.561Z,4.78
2023-05-15T15:21:04.503Z,3.22
2023-05-15T15:23:31.308Z,3.20
2023-05-15T15:25:58.096Z,3.50
2023-05-15T15:28:24.973Z,3.55
2023-05-15T15:30:51.781Z,3.90
2023-05-15T15:33:18.507Z,3.63
2023-05-15T15:35:45.582Z,3.53
2023-05-15T15:38:13.318Z,3.58
2023-05-15T15:40:40.914Z,4.05
2023-05-15T15:43:07.634Z,4.40
2023-05-15T15:45:34.538Z,5.35
2023-05-15T15:48:02.421Z,4.68
2023-05-15T15:50:29.104Z,5.30
2023-05-15T15:52:55.892Z,5.13
2023-05-15T15:55:22.817Z,5.25
2023-05-15T15:57:49.477Z,5.22
2023-05-15T16:00:16.675Z,5.18
2023-05-15T16:02:43.645Z,6.43
2023-05-15T16:05:11.662Z,5.75
2023-05-15T16:07:38.357Z,6.15
2023-05-15T16:10:12.278Z,5.20
2023-05-15T16:12:44.958Z,5.18
2023-05-15T16:17:41.781Z,4.85
2023-05-15T16:20:09.867Z,5.07
2023-05-15T16:22:38.701Z,5.35
2023-05-15T16:25:05.682Z,5.18
2023-05-15T16:27:32.437Z,5.20
2023-05-15T16:29:59.106Z,4.68
2023-05-15T16:32:27.526Z,4.60
2023-05-15T16:34:54.320Z,4.22
2023-05-15T16:37:20.997Z,2.95
2023-05-15T16:39:47.746Z,2.85
2023-05-15T16:42:14.488Z,1.95
2023-05-15T16:44:41.257Z,2.50
2023-05-15T16:47:08.337Z,1.95
2023-05-15T16:49:35.026Z,2.10
2023-05-15T16:52:01.775Z,1.58
2023-05-15T16:54:28.582Z,1.80
2023-05-15T16:56:55.882Z,1.75
2023-05-15T16:59:22.644Z,1.63
2023-05-15T17:01:49.472Z,1.80
2023-05-15T17:04:16.240Z,1.60
2023-05-15T17:06:45.017Z,1.58
2023-05-15T17:09:11.767Z,1.48
2023-05-15T17:11:38.475Z,1.60
2023-05-15T17:14:05.296Z,1.20
2023-05-15T17:16:32.024Z,1.60
2023-05-15T17:18:58.911Z,1.60
2023-05-15T17:21:25.742Z,1.75
2023-05-15T17:23:53.584Z,1.98
2023-05-15T17:26:21.606Z,1.75
2023-05-15T17:28:48.384Z,1.50
2023-05-15T17:31:15.036Z,2.15
2023-05-15T17:33:42.092Z,1.70
2023-05-15T17:36:09.211Z,2.03
2023-05-15T17:38:36.315Z,2.55
2023-05-15T17:41:03.185Z,2.35
2023-05-15T17:43:29.980Z,2.50
2023-05-15T17:45:57.555Z,2.50
2023-05-15T17:48:24.265Z,3.27
2023-05-15T17:50:50.966Z,2.60
2023-05-15T17:53:17.869Z,2.97
2023-05-15T17:55:45.284Z,2.17
2023-05-15T17:58:11.990Z,2.90
2023-05-15T18:00:38.798Z,3.33
2023-05-15T18:03:05.594Z,2.97
2023-05-15T18:05:32.525Z,2.97
2023-05-15T18:08:03.408Z,3.13
2023-05-15T18:10:31.203Z,2.90
2023-05-15T18:12:58.434Z,4.93
2023-05-15T18:15:25.591Z,2.40
2023-05-15T18:17:52.621Z,2.47
2023-05-15T18:20:19.475Z,2.75
2023-05-15T18:22:46.260Z,2.40
2023-05-15T18:25:13.039Z,2.22
2023-05-15T18:27:40.017Z,2.63
2023-05-15T18:30:07.649Z,3.30
2023-05-15T18:32:34.499Z,2.03
2023-05-15T18:35:07.330Z,2.00
2023-05-15T18:37:34.018Z,2.42
2023-05-15T18:40:00.896Z,2.17
2023-05-15T18:42:28.567Z,2.20
2023-05-15T18:44:55.484Z,2.20
2023-05-15T18:47:22.317Z,1.85
2023-05-15T18:49:49.058Z,2.20
2023-05-15T18:52:16.195Z,2.22
2023-05-15T18:54:42.835Z,2.90
2023-05-15T18:57:09.735Z,2.17
2023-05-15T18:59:36.547Z,1.80
2023-05-15T19:02:03.348Z,1.20
2023-05-15T19:04:30.311Z,0.98
2023-05-15T19:06:57.018Z,1.35
2023-05-15T19:09:23.750Z,1.33
2023-05-15T19:11:52.260Z,0.60
2023-05-15T19:14:19.157Z,1.10
2023-05-15T19:16:46.280Z,1.00
2023-05-15T19:19:13.376Z,1.00
2023-05-15T19:21:40.364Z,0.80
2023-05-15T19:24:07.660Z,0.82
2023-05-15T19:26:34.523Z,1.13
2023-05-15T19:29:01.253Z,1.98
2023-05-15T19:31:31.750Z,0.98
2023-05-15T19:34:00.859Z,1.15
2023-05-15T19:38:54.291Z,1.23
2023-05-15T19:41:22.290Z,1.08
2023-05-15T19:43:50.893Z,0.90
2023-05-15T19:48:45.408Z,0.90
2023-05-15T19:51:12.406Z,1.10
2023-05-15T19:53:39.246Z,1.30
2023-05-15T19:56:06.357Z,0.98
2023-05-15T19:58:33.503Z,1.20
2023-05-15T20:01:00.281Z,1.33
2023-05-15T20:03:34.448Z,1.48
2023-05-15T20:06:02.515Z,1.25
2023-05-15T20:08:29.878Z,1.45
2023-05-15T20:10:57.412Z,1.58
2023-05-15T20:13:24.735Z,1.92
2023-05-15T20:15:58.294Z,2.38
2023-05-15T20:18:27.093Z,1.48
2023-05-15T20:20:54.434Z,1.45
2023-05-15T20:23:21.618Z,1.38
2023-05-15T20:25:50.058Z,1.30
2023-05-15T20:28:17.795Z,1.30
2023-05-15T20:30:47.224Z,1.60
2023-05-15T20:33:14.544Z,1.40
2023-05-15T20:35:42.733Z,1.85
2023-05-15T20:38:10.505Z,1.40
2023-05-15T20:40:37.748Z,1.57
2023-05-15T20:43:05.249Z,1.30
2023-05-15T20:45:34.762Z,1.63
2023-05-15T20:48:01.792Z,1.95
2023-05-15T20:50:28.705Z,2.15
2023-05-15T20:52:55.727Z,2.35
2023-05-15T20:55:22.624Z,2.28
2023-05-15T20:57:50.264Z,2.50
2023-05-15T21:00:18.002Z,2.38
2023-05-15T21:02:45.844Z,2.38
2023-05-15T21:05:12.842Z,2.85
2023-05-15T21:07:39.557Z,1.73
2023-05-15T21:10:06.901Z,2.08
2023-05-15T21:12:34.188Z,2.35
2023-05-15T21:15:01.953Z,2.10
2023-05-15T21:17:28.794Z,2.97
2023-05-15T21:19:57.607Z,2.97
2023-05-15T21:22:24.735Z,2.50
2023-05-15T21:24:51.764Z,2.95
2023-05-15T21:27:18.697Z,2.25
2023-05-15T21:29:45.514Z,2.13
2023-05-15T21:32:12.236Z,2.50
2023-05-15T21:34:39.282Z,2.95
2023-05-15T21:37:05.960Z,2.55
2023-05-15T21:39:32.651Z,2.53
2023-05-15T21:41:59.322Z,2.35
2023-05-15T21:44:26.193Z,2.08
2023-05-15T21:46:53.629Z,2.22
2023-05-15T21:49:20.568Z,2.35
2023-05-15T21:51:47.284Z,2.95
2023-05-15T21:54:13.962Z,2.75
2023-05-15T21:56:41.176Z,2.75
2023-05-15T21:59:08.127Z,2.45
2023-05-15T22:01:36.136Z,2.13
2023-05-15T22:04:03.145Z,2.05
2023-05-15T22:06:29.906Z,2.40
2023-05-15T22:08:57.521Z,2.78
2023-05-15T22:11:24.239Z,3.30
2023-05-15T22:13:51.023Z,2.40
2023-05-15T22:16:17.794Z,2.97
2023-05-15T22:18:45.857Z,2.67
2023-05-15T22:21:12.822Z,2.53
2023-05-15T22:23:39.544Z,2.65
2023-05-15T22:26:06.220Z,2.78
2023-05-15T22:28:34.900Z,3.05
2023-05-15T22:33:29.493Z,2.47
2023-05-15T22:35:56.297Z,2.72
2023-05-15T22:38:23.023Z,2.70
2023-05-15T22:40:53.157Z,2.75
2023-05-15T22:43:20.136Z,2.38
2023-05-15T22:45:46.875Z,2.58
2023-05-15T22:48:15.225Z,3.00
2023-05-15T22:50:41.869Z,3.40
2023-05-15T22:53:08.663Z,2.92
2023-05-15T22:55:35.490Z,3.22
2023-05-15T22:58:02.117Z,1.75
2023-05-15T23:00:29.308Z,2.83
2023-05-15T23:02:57.626Z,3.60
2023-05-15T23:05:25.018Z,3.28
2023-05-15T23:07:52.569Z,2.40
2023-05-15T23:10:19.427Z,2.13
2023-05-15T23:12:46.276Z,2.58
2023-05-15T23:15:13.108Z,3.00
2023-05-15T23:17:40.385Z,2.90
2023-05-15T23:20:10.382Z,2.63
2023-05-15T23:22:37.373Z,2.63
2023-05-15T23:25:04.584Z,2.72
2023-05-15T23:27:31.365Z,2.95
2023-05-15T23:29:58.073Z,2.10
2023-05-15T23:32:24.744Z,2.97
2023-05-15T23:34:52.317Z,2.45
2023-05-15T23:37:18.983Z,3.42
2023-05-15T23:39:45.802Z,3.10
2023-05-15T23:42:12.577Z,2.35
2023-05-15T23:44:39.310Z,2.33
2023-05-15T23:47:06.626Z,2.25
2023-05-15T23:49:33.675Z,2.50
2023-05-15T23:52:01.551Z,3.13
2023-05-15T23:54:28.300Z,3.67
2023-05-15T23:56:54.979Z,2.80
2023-05-15T23:59:21.767Z,2.67
